Time;durP1;ratioP1;P1;durP2;ratioP2;P2;SDS_P1;SDS_P2;PMS_P1;PMS_P2;Temp;Humidity;BMP_temperature;BMP_pressure;BME280_temperature;BME280_humidity;BME280_pressure;Samples;Min_cycle;Max_cycle;Signal;HPM_P1;HPM_P2
2023/08/05 00:01:02;;;;;;;3.75;2.03;;;18.10;99.90;;;-141.84;64.97;21027.34;5061564;28;20304;-65
2023/08/05 00:03:30;;;;;;;4.35;2.53;;;18.10;99.90;;;-141.84;64.97;21090.38;5062988;28;20578;-66
2023/08/05 00:06:00;;;;;;;3.95;2.28;;;18.10;99.90;;;-141.84;64.76;21068.00;5062663;28;20327;-66
2023/08/05 00:08:28;;;;;;;3.35;2.30;;;18.20;99.90;;;-141.84;64.81;21057.84;5055241;28;20252;-65
2023/08/05 00:10:56;;;;;;;3.80;2.20;;;18.10;99.90;;;-141.84;64.98;21045.63;5062402;28;20236;-66
2023/08/05 00:13:24;;;;;;;2.80;2.28;;;18.10;99.90;;;-141.84;65.46;21023.28;5062362;28;20259;-65
2023/08/05 00:15:53;;;;;;;6.82;2.20;;;18.10;99.90;;;-141.84;65.77;21021.25;5062900;28;20514;-65
2023/08/05 00:18:21;;;;;;;3.65;2.58;;;18.10;99.90;;;-141.84;64.95;21074.09;5054626;28;20232;-66
2023/08/05 00:20:49;;;;;;;3.67;2.53;;;18.10;99.90;;;-141.84;65.20;21025.31;5062361;28;20236;-65
2023/08/05 00:23:19;;;;;;;6.43;3.05;;;18.00;99.90;;;-141.84;65.44;20998.88;5062524;28;20315;-66
2023/08/05 00:25:48;;;;;;;5.28;2.67;;;18.10;99.90;;;-141.84;65.23;21051.75;5062208;28;20293;-65
2023/08/05 00:28:16;;;;;;;2.90;2.40;;;18.00;99.90;;;-141.84;65.28;21049.72;5054913;28;20207;-64
2023/08/05 00:30:44;;;;;;;6.10;2.95;;;18.00;99.90;;;-141.84;66.02;21009.03;5057848;28;20262;-66
2023/08/05 00:33:12;;;;;;;4.05;2.50;;;18.00;99.90;;;-141.84;66.17;21043.59;5062255;28;20228;-65
2023/08/05 00:35:40;;;;;;;4.15;2.80;;;17.90;99.90;;;-141.84;66.04;21063.94;5062256;28;20260;-65
2023/08/05 00:38:08;;;;;;;4.25;2.85;;;17.90;99.90;;;-141.84;66.32;21017.19;5062597;28;20228;-66
2023/08/05 00:40:38;;;;;;;5.35;2.58;;;17.90;99.90;;;-141.84;66.42;21031.41;5054184;28;20378;-65
2023/08/05 00:43:06;;;;;;;4.97;2.80;;;17.90;99.90;;;-141.84;66.33;21049.72;5062456;28;20209;-66
2023/08/05 00:45:35;;;;;;;5.75;3.13;;;17.90;99.90;;;-141.84;66.21;21007.00;5062589;28;20303;-66
2023/08/05 00:48:03;;;;;;;4.80;3.00;;;17.80;99.90;;;-141.84;66.38;21004.97;5062019;28;20239;-66
2023/08/05 00:50:34;;;;;;;3.40;3.10;;;17.80;99.90;;;-141.84;67.06;20972.47;5054446;28;20305;-64
2023/08/05 00:53:03;;;;;;;3.10;2.38;;;17.70;99.90;;;-141.84;67.73;20944.00;5061982;28;20231;-66
2023/08/05 00:55:32;;;;;;;4.60;3.20;;;17.70;99.90;;;-141.84;67.33;20984.66;5061381;28;20312;-65
2023/08/05 00:58:01;;;;;;;5.07;3.20;;;17.60;99.90;;;-141.84;66.67;20998.88;5062716;28;20239;-67
2023/08/05 01:00:29;;;;;;;5.28;3.10;;;17.70;99.90;;;-141.84;67.33;20976.53;5054879;28;20307;-66
2023/08/05 01:02:58;;;;;;;3.17;2.88;;;17.60;99.90;;;-141.84;67.30;20972.47;5061871;28;20228;-66
2023/08/05 01:05:27;;;;;;;3.15;2.85;;;17.60;99.90;;;-141.84;68.10;20931.78;5062133;28;20236;-65
2023/08/05 01:07:57;;;;;;;4.22;3.25;;;17.50;99.90;;;-141.84;67.83;20944.00;5061980;28;20450;-65
2023/08/05 01:10:25;;;;;;;4.28;3.08;;;17.60;99.90;;;-141.84;68.14;20923.66;5053988;28;20220;-65
2023/08/05 01:12:53;;;;;;;4.82;3.20;;;17.40;99.90;;;-141.84;68.49;20901.31;5062911;28;20291;-65
2023/08/05 01:15:23;;;;;;;3.47;3.17;;;17.40;99.90;;;-141.84;68.16;20913.50;5061825;28;20220;-67
2023/08/05 01:17:55;;;;;;;6.13;3.67;;;17.40;99.90;;;-141.84;68.85;20872.84;5062291;28;20802;-65
2023/08/05 01:20:31;;;;;;;3.33;3.03;;;17.30;99.90;;;-141.84;68.48;20935.88;5049396;28;20232;-65
2023/08/05 01:23:08;;;;;;;3.40;3.10;;;17.30;99.90;;;-141.84;69.21;20885.03;5061277;28;20828;-65
2023/08/05 01:25:39;;;;;;;5.80;2.90;;;17.20;99.90;;;-141.84;68.79;20935.88;5063554;28;20235;-66
2023/08/05 01:28:10;;;;;;;3.55;3.13;;;17.30;99.90;;;-141.84;69.17;20885.03;5065630;28;20282;-66
2023/08/05 01:30:40;;;;;;;4.82;3.53;;;17.20;99.90;;;-141.84;70.57;20870.81;5054484;28;20209;-66
2023/08/05 01:33:09;;;;;;;4.65;3.47;;;17.10;99.90;;;-141.84;69.94;20826.09;5065542;28;20256;-65
2023/08/05 01:35:37;;;;;;;3.63;3.28;;;17.00;99.90;;;-141.84;70.30;20824.06;5065577;28;20319;-66
2023/08/05 01:38:06;;;;;;;5.38;3.40;;;17.10;99.90;;;-141.84;70.27;20864.72;5064918;28;20783;-66
2023/08/05 01:40:34;;;;;;;4.47;3.30;;;17.00;99.90;;;-141.84;71.07;20791.53;5057819;28;24028;-66
2023/08/05 01:43:04;;;;;;;4.97;3.20;;;17.00;99.90;;;-141.84;71.20;20807.78;5065365;28;20205;-65
2023/08/05 01:45:35;;;;;;;4.00;3.50;;;16.90;99.90;;;-141.84;70.92;20809.81;5066010;28;20580;-64
2023/08/05 01:48:04;;;;;;;4.07;3.67;;;16.90;99.90;;;-141.84;70.46;20848.44;5064879;28;20803;-65
2023/08/05 01:50:33;;;;;;;3.90;3.33;;;17.00;99.90;;;-141.84;70.32;20834.22;5056851;28;20640;-64
2023/08/05 01:53:01;;;;;;;6.18;3.42;;;17.00;99.90;;;-141.84;71.22;20826.09;5064826;28;20482;-65
2023/08/05 01:55:29;;;;;;;3.50;3.20;;;16.90;99.90;;;-141.84;71.18;20815.91;5064972;28;20704;-65
2023/08/05 01:57:57;;;;;;;4.45;3.00;;;17.00;99.90;;;-141.84;71.61;20858.59;5065267;28;20700;-65
2023/08/05 02:00:27;;;;;;;3.20;2.75;;;16.90;99.90;;;-141.84;72.44;20754.94;5056604;28;20307;-64
2023/08/05 02:02:55;;;;;;;5.03;2.97;;;16.80;99.90;;;-141.84;72.05;20801.69;5064332;28;20317;-65
2023/08/05 02:05:23;;;;;;;4.25;3.20;;;16.80;99.90;;;-141.84;71.73;20820.00;5064826;28;20295;-65
2023/08/05 02:07:52;;;;;;;3.40;3.10;;;16.90;99.90;;;-141.84;71.92;20817.94;5063950;28;20660;-65
2023/08/05 02:10:20;;;;;;;3.90;3.33;;;16.90;99.90;;;-141.84;72.04;20822.03;5057467;28;20315;-64
2023/08/05 02:12:48;;;;;;;7.47;2.83;;;16.90;99.90;;;-141.84;72.59;20803.72;5065623;28;20197;-65
2023/08/05 02:15:16;;;;;;;4.05;3.05;;;16.80;99.90;;;-141.84;72.73;20781.38;5064541;28;20320;-65
2023/08/05 02:17:46;;;;;;;3.58;2.92;;;16.80;99.90;;;-141.84;72.74;20756.97;5065057;28;20315;-66
2023/08/05 02:20:16;;;;;;;3.38;2.70;;;16.80;99.90;;;-141.84;71.71;20815.91;5061248;28;20229;-65
2023/08/05 02:22:44;;;;;;;4.65;3.13;;;16.90;99.90;;;-141.84;71.51;20817.94;5063911;28;20263;-65
2023/08/05 02:25:12;;;;;;;3.63;2.78;;;16.80;99.90;;;-141.84;72.71;20752.91;5064745;28;20200;-65
2023/08/05 02:27:40;;;;;;;4.05;2.80;;;16.70;99.90;;;-141.84;73.55;20756.97;5065158;28;20672;-65
2023/08/05 02:30:09;;;;;;;4.00;2.90;;;16.70;99.90;;;-141.84;73.36;20775.25;5062352;28;20312;-65
2023/08/05 02:32:37;;;;;;;3.40;2.50;;;16.70;99.90;;;-141.84;73.25;20738.66;5037143;28;20326;-65
2023/08/05 02:35:08;;;;;;;3.38;3.00;;;16.70;99.90;;;-141.84;72.50;20795.59;5044554;28;20599;-65
2023/08/05 02:37:36;;;;;;;3.25;2.95;;;16.60;99.90;;;-141.84;72.76;20789.50;5043800;28;20308;-66
2023/08/05 02:40:06;;;;;;;3.88;3.13;;;16.70;99.90;;;-141.84;72.78;20763.06;5043753;28;20295;-66
2023/08/05 02:42:34;;;;;;;3.63;2.80;;;16.60;99.90;;;-141.84;73.09;20756.97;5047933;28;20584;-66
2023/08/05 02:45:02;;;;;;;4.45;3.17;;;16.60;99.90;;;-141.84;73.36;20728.50;5064369;28;20255;-66
2023/08/05 02:47:30;;;;;;;4.55;3.33;;;16.60;99.90;;;-141.84;73.60;20750.88;5064611;28;20327;-65
2023/08/05 02:49:59;;;;;;;3.28;2.97;;;16.50;99.90;;;-141.84;74.33;20706.16;5063950;28;20242;-65
2023/08/05 02:52:28;;;;;;;2.85;2.65;;;16.40;99.90;;;-141.84;74.95;20702.09;5055811;28;20282;-67
2023/08/05 02:54:56;;;;;;;3.78;2.92;;;16.40;99.90;;;-141.84;74.99;20702.09;5064170;28;20287;-66
2023/08/05 02:57:25;;;;;;;4.28;3.80;;;16.40;99.90;;;-141.84;74.13;20744.78;5064321;28;20224;-65
2023/08/05 02:59:53;;;;;;;3.45;3.10;;;16.40;99.90;;;-141.84;74.22;20712.25;5059655;28;20272;-64
2023/08/05 03:02:21;;;;;;;3.83;3.47;;;16.40;99.90;;;-141.84;73.87;20728.50;5036354;28;20487;-65
2023/08/05 03:04:49;;;;;;;3.83;2.90;;;16.40;99.90;;;-141.84;74.64;20687.84;5043969;28;20236;-65
2023/08/05 03:07:17;;;;;;;4.10;3.67;;;16.40;99.90;;;-141.84;74.23;20744.78;5042847;28;20505;-65
2023/08/05 03:09:47;;;;;;;4.28;3.33;;;16.40;99.90;;;-141.84;73.85;20728.50;5044621;28;20701;-65
2023/08/05 03:12:15;;;;;;;3.97;3.15;;;16.50;99.90;;;-141.84;74.84;20695.97;5036769;28;20229;-65
2023/08/05 03:14:43;;;;;;;3.47;3.08;;;16.40;99.90;;;-141.84;74.28;20706.16;5043453;28;20233;-66
2023/08/05 03:17:12;;;;;;;4.15;3.40;;;16.40;99.90;;;-141.84;74.64;20708.19;5061938;28;20263;-65
2023/08/05 03:19:40;;;;;;;5.90;3.40;;;16.40;99.90;;;-141.84;75.20;20732.56;5063249;28;20311;-66
2023/08/05 03:22:08;;;;;;;3.72;3.40;;;16.40;99.90;;;-141.84;74.43;20724.44;5062842;28;20704;-66
2023/08/05 03:24:36;;;;;;;3.47;3.17;;;16.40;99.90;;;-141.84;75.10;20693.94;5055841;28;20291;-65
2023/08/05 03:27:07;;;;;;;4.50;3.40;;;16.40;99.90;;;-141.84;74.98;20728.50;5060236;28;20316;-66
2023/08/05 03:29:35;;;;;;;3.35;3.03;;;16.40;99.90;;;-141.84;75.79;20716.31;5062984;28;20256;-65
2023/08/05 03:32:04;;;;;;;4.40;3.80;;;16.40;99.90;;;-141.84;75.87;20722.41;5062661;28;20650;-64
2023/08/05 03:34:32;;;;;;;4.28;3.55;;;16.40;99.90;;;-141.84;75.33;20693.94;5055766;28;20659;-65
2023/08/05 03:37:00;;;;;;;4.07;3.50;;;16.40;99.90;;;-141.84;75.40;20685.81;5063460;28;20303;-66
2023/08/05 03:39:28;;;;;;;4.95;3.78;;;16.40;99.90;;;-141.84;75.88;20679.72;5063136;28;20292;-65
2023/08/05 03:41:56;;;;;;;4.38;3.97;;;16.40;99.90;;;-141.84;76.34;20657.34;5062711;28;20263;-65
2023/08/05 03:44:26;;;;;;;4.88;4.38;;;16.40;99.90;;;-141.84;75.24;20712.25;5055929;28;20758;-65
2023/08/05 03:46:54;;;;;;;4.40;3.80;;;16.40;99.90;;;-141.84;75.50;20677.69;5062809;28;20229;-65
2023/08/05 03:49:22;;;;;;;4.30;3.90;;;16.30;99.90;;;-141.84;76.58;20693.94;5062750;28;20226;-65
2023/08/05 03:51:50;;;;;;;3.92;3.53;;;16.30;99.90;;;-141.84;76.63;20675.66;5063218;28;20235;-66
2023/08/05 03:54:19;;;;;;;4.03;3.70;;;16.30;99.90;;;-141.84;76.15;20667.53;5055098;28;20407;-65
2023/08/05 03:56:47;;;;;;;4.43;3.70;;;16.30;99.90;;;-141.84;77.10;20663.47;5062834;28;20224;-65
2023/08/05 03:59:16;;;;;;;4.63;4.15;;;16.30;99.90;;;-141.84;75.71;20718.34;5062465;28;20323;-66
2023/08/05 04:01:45;;;;;;;5.75;4.22;;;16.30;99.90;;;-141.84;75.71;20695.97;5062700;28;20315;-66
2023/08/05 04:04:13;;;;;;;4.18;3.65;;;16.30;99.90;;;-141.84;76.62;20653.28;5043820;28;20213;-65
2023/08/05 04:06:42;;;;;;;4.30;3.63;;;16.30;99.90;;;-141.84;76.33;20700.03;5040766;28;20201;-65
2023/08/05 04:09:10;;;;;;;4.32;3.92;;;16.30;99.90;;;-141.84;75.50;20665.50;5042759;28;20332;-66
2023/08/05 04:11:38;;;;;;;4.75;3.85;;;16.30;99.90;;;-141.84;75.01;20726.47;5042672;28;20312;-65
2023/08/05 04:14:06;;;;;;;5.15;3.88;;;16.40;99.90;;;-141.84;75.30;20693.94;5042812;28;20712;-66
2023/08/05 04:16:34;;;;;;;4.72;3.60;;;16.40;99.90;;;-141.84;75.48;20673.63;5061447;28;23305;-65
2023/08/05 04:19:06;;;;;;;4.68;4.05;;;16.30;99.90;;;-141.84;75.61;20706.16;5073401;28;20201;-66
2023/08/05 04:21:40;;;;;;;4.97;3.90;;;16.30;99.90;;;-141.84;75.78;20742.75;5062745;28;20217;-66
2023/08/05 04:24:09;;;;;;;4.57;3.65;;;16.30;99.90;;;-141.84;75.96;20671.59;5061570;28;20238;-65
2023/08/05 04:26:37;;;;;;;4.22;3.58;;;16.30;99.90;;;-141.84;76.37;20679.72;5055095;28;20233;-65
2023/08/05 04:29:05;;;;;;;6.65;4.05;;;16.30;99.90;;;-141.84;75.79;20679.72;5062295;28;20305;-66
2023/08/05 04:31:34;;;;;;;4.45;3.60;;;16.30;99.90;;;-141.84;76.56;20618.72;5061814;28;20724;-65
2023/08/05 04:34:03;;;;;;;4.68;3.53;;;16.20;99.90;;;-141.84;77.54;20635.00;5046531;28;20225;-66
2023/08/05 04:36:33;;;;;;;5.28;3.70;;;16.10;99.90;;;-141.84;77.33;20651.25;5035075;28;20229;-65
2023/08/05 04:39:03;;;;;;;3.85;3.40;;;16.10;99.90;;;-141.84;77.48;20614.66;5041268;28;20237;-66
2023/08/05 04:41:31;;;;;;;4.53;3.78;;;16.00;99.90;;;-141.84;77.49;20679.72;5043952;28;20225;-65
2023/08/05 04:44:00;;;;;;;4.18;3.78;;;16.10;99.90;;;-141.84;77.04;20653.28;5062041;28;20228;-65
2023/08/05 04:46:28;;;;;;;4.57;3.88;;;16.10;99.90;;;-141.84;77.53;20600.44;5054173;28;20224;-66
2023/08/05 04:48:56;;;;;;;6.53;3.50;;;16.00;99.90;;;-141.84;78.45;20618.72;5062652;28;20212;-66
2023/08/05 04:51:25;;;;;;;5.35;4.20;;;16.00;99.90;;;-141.84;77.66;20630.94;5062055;28;20334;-66
2023/08/05 04:53:54;;;;;;;4.05;3.35;;;16.00;99.90;;;-141.84;78.07;20614.66;5061984;28;20256;-66
2023/08/05 04:56:25;;;;;;;4.20;3.90;;;16.00;99.90;;;-141.84;77.28;20635.00;5054629;28;20256;-65
2023/08/05 04:58:53;;;;;;;5.22;3.65;;;16.10;99.90;;;-141.84;78.34;20596.38;5062333;28;20232;-65
2023/08/05 05:01:21;;;;;;;4.63;3.60;;;16.00;99.90;;;-141.84;78.25;20594.34;5064822;28;20250;-66
2023/08/05 05:03:51;;;;;;;3.78;3.47;;;16.00;99.90;;;-141.84;78.45;20602.47;5052848;28;20213;-66
2023/08/05 05:06:20;;;;;;;3.88;3.45;;;16.00;99.90;;;-141.84;79.00;20584.19;5038538;28;20229;-66
2023/08/05 05:08:49;;;;;;;4.95;3.80;;;15.90;99.90;;;-141.84;78.97;20606.53;5045394;28;20290;-65
2023/08/05 05:11:17;;;;;;;4.32;3.60;;;16.00;99.90;;;-141.84;77.78;20637.03;5046018;28;20260;-66
2023/08/05 05:13:50;;;;;;;4.75;3.70;;;16.00;99.90;;;-141.84;77.09;20667.53;5045618;28;20260;-66
2023/08/05 05:16:18;;;;;;;4.28;3.88;;;16.10;99.90;;;-141.84;77.38;20649.22;5060637;28;20584;-64
2023/08/05 05:18:46;;;;;;;5.97;3.53;;;16.10;99.90;;;-141.84;77.99;20616.69;5079917;28;20281;-65
2023/08/05 05:21:14;;;;;;;6.45;4.05;;;16.10;99.90;;;-141.84;76.95;20659.38;5065647;28;20238;-66
2023/08/05 05:23:43;;;;;;;4.00;3.50;;;16.20;99.90;;;-141.84;76.67;20700.03;5065105;28;20319;-65
2023/08/05 05:26:13;;;;;;;4.18;3.58;;;16.30;99.90;;;-141.84;75.83;20665.50;5065772;28;20580;-66
2023/08/05 05:28:41;;;;;;;4.07;3.72;;;16.30;99.90;;;-141.84;74.97;20712.25;5062075;28;20232;-66
2023/08/05 05:31:09;;;;;;;5.07;3.67;;;16.30;99.90;;;-141.84;75.71;20673.63;5065261;28;20223;-66
2023/08/05 05:33:37;;;;;;;3.40;3.10;;;16.40;99.90;;;-141.84;76.34;20681.75;5053685;28;20213;-65
2023/08/05 05:36:06;;;;;;;4.30;3.90;;;16.30;99.90;;;-141.84;76.46;20695.97;5045090;28;20260;-65
2023/08/05 05:38:34;;;;;;;4.70;3.70;;;16.40;99.90;;;-141.84;76.31;20700.03;5037443;28;20489;-65
2023/08/05 05:41:02;;;;;;;4.40;3.70;;;16.40;99.90;;;-141.84;75.90;20712.25;5045395;28;20324;-65
2023/08/05 05:43:33;;;;;;;3.85;3.42;;;16.40;99.90;;;-141.84;75.03;20702.09;5064310;28;20708;-66
2023/08/05 05:46:02;;;;;;;4.45;3.80;;;16.40;99.90;;;-141.84;73.54;20769.16;5065892;28;20200;-66
2023/08/05 05:48:30;;;;;;;3.55;3.15;;;16.50;99.90;;;-141.84;74.33;20750.88;5058228;28;20265;-66
2023/08/05 05:50:59;;;;;;;5.38;3.50;;;16.60;99.90;;;-141.84;72.76;20775.25;5064886;28;20229;-66
2023/08/05 05:53:27;;;;;;;3.83;3.53;;;16.70;99.90;;;-141.84;73.43;20809.81;5064423;28;20336;-66
2023/08/05 05:55:55;;;;;;;4.28;3.70;;;16.90;99.90;;;-141.84;72.20;20850.47;5064724;28;20243;-65
2023/08/05 05:58:23;;;;;;;4.50;3.50;;;17.00;99.90;;;-141.84;71.82;20854.53;5057648;28;20228;-65
2023/08/05 06:00:56;;;;;;;4.88;3.50;;;17.20;99.90;;;-141.84;70.58;20939.94;5065875;28;20246;-65
2023/08/05 06:03:25;;;;;;;5.47;3.70;;;17.20;99.90;;;-141.84;70.82;20901.31;5054787;28;20233;-66
2023/08/05 06:05:53;;;;;;;6.68;3.90;;;17.30;99.90;;;-141.84;69.50;20948.06;5044795;28;20229;-67
2023/08/05 06:08:21;;;;;;;5.05;3.55;;;17.50;99.90;;;-141.84;69.50;20974.50;5036671;28;20233;-66
2023/08/05 06:10:49;;;;;;;4.47;3.53;;;17.60;99.90;;;-141.84;68.24;21029.38;5044262;28;20240;-65
2023/08/05 06:13:17;;;;;;;3.45;3.15;;;17.80;99.90;;;-141.84;68.08;21059.88;5045373;28;20240;-66
2023/08/05 06:15:46;;;;;;;5.80;3.50;;;18.00;99.90;;;-141.84;66.30;21155.44;5058219;28;20204;-67
2023/08/05 06:18:15;;;;;;;4.47;3.50;;;18.10;99.90;;;-141.84;66.00;21131.03;5079798;28;20327;-65
2023/08/05 06:20:44;;;;;;;5.05;3.40;;;18.20;99.90;;;-141.84;66.66;21122.91;5064314;28;20311;-67
2023/08/05 06:23:12;;;;;;;3.40;3.10;;;18.20;99.90;;;-141.84;64.95;21214.38;5064457;28;20258;-66
2023/08/05 06:25:40;;;;;;;3.58;3.28;;;18.60;99.90;;;-141.84;63.93;21289.59;5064605;28;20242;-65
2023/08/05 06:28:09;;;;;;;5.22;3.38;;;18.90;99.90;;;-141.84;62.46;21381.09;5064528;28;20200;-65
2023/08/05 06:30:43;;;;;;;6.00;3.38;;;19.20;99.90;;;-141.84;61.76;21431.94;5056614;28;20205;-65
2023/08/05 06:33:11;;;;;;;3.70;3.28;;;19.40;99.90;;;-141.84;61.19;21454.28;5056283;28;20264;-65
2023/08/05 06:35:41;;;;;;;3.70;2.78;;;19.50;99.90;;;-141.84;60.59;21529.53;5044295;28;20283;-66
2023/08/05 06:38:09;;;;;;;4.20;3.15;;;19.70;99.90;;;-141.84;60.12;21564.09;5049246;28;20699;-65
2023/08/05 06:40:41;;;;;;;4.05;3.28;;;19.80;99.90;;;-141.84;59.61;21635.25;5057136;28;20233;-65
2023/08/05 06:43:09;;;;;;;3.17;2.88;;;20.10;99.90;;;-141.84;59.44;21643.38;5064514;28;20628;-66
2023/08/05 06:45:37;;;;;;;3.45;2.53;;;20.20;99.90;;;-141.84;59.12;21680.00;5064744;28;20208;-66
2023/08/05 06:48:06;;;;;;;6.47;3.00;;;20.50;99.90;;;-141.84;59.03;21680.00;5064469;28;20510;-66
2023/08/05 06:50:35;;;;;;;3.50;3.00;;;20.50;99.90;;;-141.84;58.77;21720.66;5055941;28;20458;-66
2023/08/05 06:53:05;;;;;;;4.78;3.30;;;20.60;99.90;;;-141.84;57.95;21716.59;5063624;28;20255;-65
2023/08/05 06:55:33;;;;;;;4.85;3.38;;;20.60;99.90;;;-141.84;58.39;21734.88;5064252;28;20220;-66
2023/08/05 06:58:02;;;;;;;2.65;2.45;;;20.80;99.90;;;-141.84;59.90;21647.47;5063905;28;20208;-66
2023/08/05 07:00:30;;;;;;;4.10;3.17;;;20.60;99.90;;;-141.84;59.02;21647.47;5057431;28;20247;-66
2023/08/05 07:02:59;;;;;;;3.47;3.17;;;20.50;99.90;;;-141.84;58.83;21694.22;5057234;28;20579;-66
2023/08/05 07:05:27;;;;;;;4.10;3.05;;;20.40;99.90;;;-141.84;59.26;21649.50;5059474;28;20323;-66
2023/08/05 07:07:55;;;;;;;4.97;3.10;;;20.40;99.90;;;-141.84;59.64;21659.66;5063433;28;20270;-66
2023/08/05 07:10:25;;;;;;;5.05;3.33;;;20.50;99.90;;;-141.84;58.59;21655.59;5055636;28;20763;-66
2023/08/05 07:12:53;;;;;;;3.72;2.97;;;20.60;99.90;;;-141.84;59.74;21590.53;5064180;28;20196;-65
2023/08/05 07:15:20;;;;;;;4.63;2.90;;;20.40;99.90;;;-141.84;59.74;21596.63;5065638;28;20755;-66
2023/08/05 07:17:49;;;;;;;5.50;2.90;;;20.20;99.90;;;-141.84;59.56;21641.34;5063558;28;20324;-65
2023/08/05 07:20:17;;;;;;;3.53;2.60;;;20.30;99.90;;;-141.84;59.78;21566.13;5055786;28;20312;-66
2023/08/05 07:22:45;;;;;;;5.15;3.15;;;20.30;99.90;;;-141.84;59.30;21600.69;5061903;28;20286;-65
2023/08/05 07:25:14;;;;;;;3.35;2.90;;;20.30;99.90;;;-141.84;59.10;21596.63;5063198;28;20208;-66
2023/08/05 07:27:43;;;;;;;3.40;3.00;;;20.30;99.90;;;-141.84;59.80;21531.56;5063409;28;20197;-66
2023/08/05 07:30:12;;;;;;;5.00;3.38;;;20.20;99.90;;;-141.84;60.64;21521.41;5063205;28;20263;-65
2023/08/05 07:32:40;;;;;;;5.25;2.63;;;20.00;99.90;;;-141.84;60.61;21515.28;5055423;28;20264;-67
2023/08/05 07:35:10;;;;;;;4.28;2.88;;;20.00;99.90;;;-141.84;60.05;21521.41;5054829;28;20316;-66
2023/08/05 07:37:38;;;;;;;3.50;2.65;;;19.90;99.90;;;-141.84;60.03;21519.34;5062407;28;20313;-65
2023/08/05 07:40:12;;;;;;;3.45;2.38;;;19.90;99.90;;;-141.84;59.67;21560.03;5063212;28;20243;-66
2023/08/05 07:42:42;;;;;;;4.60;2.80;;;20.10;99.90;;;-141.84;59.29;21576.28;5060650;28;20614;-66
2023/08/05 07:45:16;;;;;;;3.08;2.60;;;20.10;99.90;;;-141.84;58.91;21568.16;5063133;28;20310;-65
2023/08/05 07:47:45;;;;;;;3.42;2.20;;;20.10;99.90;;;-141.84;59.27;21562.06;5063423;28;20220;-66
2023/08/05 07:50:16;;;;;;;3.95;2.60;;;20.10;99.90;;;-141.84;59.36;21616.97;5061076;28;20238;-66
2023/08/05 07:52:44;;;;;;;4.47;2.35;;;20.20;99.90;;;-141.84;58.28;21643.38;5061633;28;20224;-65
2023/08/05 07:55:12;;;;;;;3.88;2.20;;;20.40;99.90;;;-141.84;57.44;21671.84;5062860;28;20258;-66
2023/08/05 07:57:41;;;;;;;3.60;2.13;;;20.50;99.90;;;-141.84;57.82;21692.19;5063288;28;20269;-66
2023/08/05 08:00:13;;;;;;;5.40;2.65;;;20.60;99.90;;;-141.84;56.63;21761.31;5063060;28;20228;-66
2023/08/05 08:02:43;;;;;;;3.45;2.65;;;20.70;99.90;;;-141.84;56.09;21834.53;5061136;28;20323;-66
2023/08/05 08:05:13;;;;;;;3.72;2.60;;;20.90;99.90;;;-141.84;57.07;21753.19;5062648;28;20235;-66
2023/08/05 08:07:46;;;;;;;4.05;2.30;;;20.80;99.90;;;-141.84;56.33;21818.25;5062176;28;20251;-65
2023/08/05 08:10:15;;;;;;;2.33;2.00;;;20.90;99.90;;;-141.84;56.46;21757.25;5059076;28;20204;-66
2023/08/05 08:12:46;;;;;;;3.63;2.15;;;20.90;99.90;;;-141.84;56.27;21769.47;5062589;28;20216;-66
2023/08/05 08:15:15;;;;;;;3.92;2.55;;;21.00;99.90;;;-141.84;56.03;21852.81;5064838;28;20319;-66
2023/08/05 08:17:44;;;;;;;3.38;2.47;;;21.10;99.90;;;-141.84;55.90;21814.19;5082561;28;20625;-66
2023/08/05 08:20:12;;;;;;;3.00;2.47;;;21.20;99.90;;;-141.84;55.21;21926.03;5062809;28;20874;-66
2023/08/05 08:22:40;;;;;;;3.53;2.08;;;21.40;99.90;;;-141.84;55.50;21913.84;5059189;28;20274;-66
2023/08/05 08:25:09;;;;;;;2.30;2.10;;;21.30;99.90;;;-141.84;54.52;21936.19;5061773;28;20228;-66
2023/08/05 08:27:37;;;;;;;2.65;2.38;;;21.40;99.90;;;-141.84;54.64;21954.50;5062409;28;20204;-66
2023/08/05 08:30:07;;;;;;;2.60;2.05;;;21.30;99.90;;;-141.84;54.62;21936.19;5062623;28;20235;-66
2023/08/05 08:32:37;;;;;;;6.03;2.65;;;21.50;99.90;;;-141.84;53.58;21995.16;5049633;28;20295;-66
2023/08/05 08:35:07;;;;;;;3.00;2.17;;;21.60;99.90;;;-141.84;53.98;21991.09;5062494;28;20261;-66
2023/08/05 08:37:35;;;;;;;3.95;2.33;;;21.60;99.90;;;-141.84;54.07;21952.47;5061659;28;20763;-66
2023/08/05 08:40:04;;;;;;;3.85;2.28;;;21.60;99.90;;;-141.84;54.04;21950.44;5062347;28;20299;-67
2023/08/05 08:42:33;;;;;;;2.88;2.15;;;21.70;99.90;;;-141.84;53.93;22005.34;5054738;28;20284;-66
2023/08/05 08:45:02;;;;;;;2.83;1.98;;;21.70;99.90;;;-141.84;54.93;21985.00;5061769;28;20282;-66
2023/08/05 08:47:30;;;;;;;2.22;1.90;;;21.80;99.90;;;-141.84;53.40;22005.34;5061941;28;20255;-67
2023/08/05 08:50:01;;;;;;;3.08;2.30;;;21.90;99.90;;;-141.84;53.04;22029.75;5062112;28;20247;-66
2023/08/05 08:52:33;;;;;;;2.50;1.92;;;21.70;99.90;;;-141.84;53.15;22070.41;5053590;28;20707;-66
2023/08/05 08:55:03;;;;;;;2.50;2.20;;;21.80;99.90;;;-141.84;51.54;22129.38;5062640;28;20257;-66
2023/08/05 08:57:32;;;;;;;3.22;2.22;;;22.00;99.90;;;-141.84;52.35;22021.59;5062382;28;20208;-66
2023/08/05 09:00:00;;;;;;;4.07;1.90;;;21.90;99.90;;;-141.84;53.00;22025.66;5061271;28;20311;-66
2023/08/05 09:02:28;;;;;;;3.58;2.28;;;21.80;99.90;;;-141.84;53.50;21997.19;5051878;28;20319;-65
2023/08/05 09:04:57;;;;;;;2.63;2.17;;;21.70;99.90;;;-141.84;53.67;22082.63;5041746;28;20295;-65
2023/08/05 09:07:28;;;;;;;2.25;2.00;;;21.80;99.90;;;-141.84;52.24;22100.91;5041783;28;20314;-66
2023/08/05 09:09:57;;;;;;;3.70;2.03;;;21.90;99.90;;;-141.84;52.35;22017.53;5042729;28;20297;-66
2023/08/05 09:12:30;;;;;;;4.20;1.98;;;21.90;99.90;;;-141.84;52.37;22084.66;5034017;28;20622;-66
2023/08/05 09:14:59;;;;;;;2.08;1.88;;;21.90;99.90;;;-141.84;52.84;22025.66;5042084;28;20302;-66
2023/08/05 09:17:39;;;;;;;3.00;1.90;;;21.80;99.90;;;-141.84;53.04;22064.31;5042279;28;20465;-67
2023/08/05 09:20:13;;;;;;;3.10;2.28;;;21.90;99.90;;;-141.84;51.35;22127.34;5059851;28;20232;-66
2023/08/05 09:22:54;;;;;;;2.53;2.15;;;22.20;99.90;;;-141.84;51.62;22129.38;5057882;28;20292;-66
2023/08/05 09:25:24;;;;;;;3.15;2.00;;;22.20;99.90;;;-141.84;52.38;22111.09;5061794;28;20273;-66
2023/08/05 09:27:53;;;;;;;2.45;1.90;;;22.10;99.90;;;-141.84;51.71;22180.22;5062375;28;20299;-65
2023/08/05 09:30:23;;;;;;;2.30;1.80;;;22.30;99.90;;;-141.84;50.33;22261.56;5054038;28;20589;-66
2023/08/05 09:32:54;;;;;;;2.10;1.90;;;22.40;99.90;;;-141.84;50.64;22253.44;5056180;28;20671;-66
2023/08/05 09:35:25;;;;;;;3.50;1.90;;;22.40;99.90;;;-141.84;50.98;22202.59;5048492;28;20225;-67
2023/08/05 09:37:55;;;;;;;3.53;1.90;;;22.50;99.90;;;-141.84;50.46;22302.25;5061628;28;20259;-66
2023/08/05 09:40:28;;;;;;;2.38;2.17;;;22.50;99.90;;;-141.84;50.47;22245.28;5054626;28;20719;-66
2023/08/05 09:42:59;;;;;;;4.47;2.17;;;22.50;99.90;;;-141.84;50.62;22316.47;5062239;28;20225;-65
2023/08/05 09:45:28;;;;;;;3.65;2.03;;;22.70;99.90;;;-141.84;50.70;22328.69;5062252;28;20236;-70
2023/08/05 09:48:04;;;;;;;3.35;2.08;;;22.80;99.90;;;-141.84;48.88;22381.56;5064827;28;20236;-66
2023/08/05 09:50:36;;;;;;;2.78;2.03;;;22.90;99.90;;;-141.84;49.33;22363.25;5047838;28;20302;-66
2023/08/05 09:53:10;;;;;;;2.53;2.03;;;22.90;99.90;;;-141.84;48.38;22414.09;5045262;28;20283;-65
2023/08/05 09:55:39;;;;;;;3.78;2.22;;;23.00;99.90;;;-141.84;49.64;22326.66;5045518;28;20225;-66
2023/08/05 09:58:08;;;;;;;4.18;2.50;;;22.90;99.90;;;-141.84;50.00;22424.25;5045315;28;20677;-66
2023/08/05 10:00:40;;;;;;;4.05;2.30;;;22.90;99.90;;;-141.84;49.01;22408.00;5038187;28;20241;-65
2023/08/05 10:03:13;;;;;;;5.30;2.60;;;23.20;99.90;;;-141.84;49.12;22416.13;5052877;28;20607;-66
2023/08/05 10:05:44;;;;;;;3.92;2.30;;;23.00;99.90;;;-141.84;49.01;22432.41;5064590;28;20236;-66
2023/08/05 10:08:15;;;;;;;2.40;2.20;;;23.30;99.90;;;-141.84;49.24;22513.75;5063938;28;20695;-65
2023/08/05 10:10:45;;;;;;;3.08;2.45;;;23.20;99.90;;;-141.84;48.31;22469.00;5065094;28;20260;-67
2023/08/05 10:13:20;;;;;;;3.55;2.25;;;23.40;99.90;;;-141.84;49.11;22424.25;5065301;28;20239;-65